sensor_id;sensor_type;location;lat;lon;timestamp;P1;durP1;ratioP1;P2;durP2;ratioP2
53549;SDS011;67273;52.914;-0.982;2023-06-22T00:02:17;2.90;;;2.20;;
53549;SDS011;67273;52.914;-0.982;2023-06-22T00:04:43;2.78;;;2.25;;
53549;SDS011;67273;52.914;-0.982;2023-06-22T00:07:09;3.60;;;2.30;;
53549;SDS011;67273;52.914;-0.982;2023-06-22T00:09:35;2.35;;;2.10;;
53549;SDS011;67273;52.914;-0.982;2023-06-22T00:12:03;2.40;;;2.20;;
53549;SDS011;67273;52.914;-0.982;2023-06-22T00:14:29;2.40;;;2.20;;
53549;SDS011;67273;52.914;-0.982;2023-06-22T00:16:55;2.80;;;2.47;;
53549;SDS011;67273;52.914;-0.982;2023-06-22T00:19:22;3.65;;;2.42;;
53549;SDS011;67273;52.914;-0.982;2023-06-22T00:21:48;2.35;;;2.10;;
53549;SDS011;67273;52.914;-0.982;2023-06-22T00:24:18;2.35;;;2.10;;
53549;SDS011;67273;52.914;-0.982;2023-06-22T00:26:44;2.80;;;2.35;;
53549;SDS011;67273;52.914;-0.982;2023-06-22T00:29:11;3.58;;;2.17;;
53549;SDS011;67273;52.914;-0.982;2023-06-22T00:31:37;2.97;;;2.30;;
53549;SDS011;67273;52.914;-0.982;2023-06-22T00:34:02;3.00;;;2.42;;
53549;SDS011;67273;52.914;-0.982;2023-06-22T00:36:28;2.95;;;2.30;;
53549;SDS011;67273;52.914;-0.982;2023-06-22T00:38:54;2.47;;;2.00;;
53549;SDS011;67273;52.914;-0.982;2023-06-22T00:41:20;3.67;;;2.42;;
53549;SDS011;67273;52.914;-0.982;2023-06-22T00:43:45;3.72;;;2.42;;
53549;SDS011;67273;52.914;-0.982;2023-06-22T00:46:13;3.05;;;2.30;;
53549;SDS011;67273;52.914;-0.982;2023-06-22T00:48:39;3.63;;;2.25;;
53549;SDS011;67273;52.914;-0.982;2023-06-22T00:51:08;2.83;;;2.30;;
53549;SDS011;67273;52.914;-0.982;2023-06-22T00:53:35;3.00;;;2.38;;
53549;SDS011;67273;52.914;-0.982;2023-06-22T00:56:03;2.35;;;2.15;;
53549;SDS011;67273;52.914;-0.982;2023-06-22T00:58:30;2.17;;;1.98;;
53549;SDS011;67273;52.914;-0.982;2023-06-22T01:00:57;2.40;;;2.10;;
53549;SDS011;67273;52.914;-0.982;2023-06-22T01:03:27;2.67;;;2.20;;
53549;SDS011;67273;52.914;-0.982;2023-06-22T01:05:55;2.42;;;1.92;;
53549;SDS011;67273;52.914;-0.982;2023-06-22T01:08:35;3.80;;;2.53;;
53549;SDS011;67273;52.914;-0.982;2023-06-22T01:11:14;3.30;;;2.30;;
53549;SDS011;67273;52.914;-0.982;2023-06-22T01:13:45;2.55;;;2.20;;
53549;SDS011;67273;52.914;-0.982;2023-06-22T01:16:20;3.45;;;2.20;;
53549;SDS011;67273;52.914;-0.982;2023-06-22T01:18:52;2.88;;;2.30;;
53549;SDS011;67273;52.914;-0.982;2023-06-22T01:21:22;2.35;;;2.13;;
53549;SDS011;67273;52.914;-0.982;2023-06-22T01:23:51;2.80;;;2.20;;
53549;SDS011;67273;52.914;-0.982;2023-06-22T01:26:28;3.05;;;2.00;;
53549;SDS011;67273;52.914;-0.982;2023-06-22T01:29:02;2.38;;;2.17;;
53549;SDS011;67273;52.914;-0.982;2023-06-22T01:31:30;2.15;;;2.03;;
53549;SDS011;67273;52.914;-0.982;2023-06-22T01:33:58;3.13;;;2.25;;
53549;SDS011;67273;52.914;-0.982;2023-06-22T01:36:26;2.78;;;2.20;;
53549;SDS011;67273;52.914;-0.982;2023-06-22T01:38:53;2.72;;;2.10;;
53549;SDS011;67273;52.914;-0.982;2023-06-22T01:41:19;2.85;;;2.28;;
53549;SDS011;67273;52.914;-0.982;2023-06-22T01:43:46;2.47;;;2.00;;
53549;SDS011;67273;52.914;-0.982;2023-06-22T01:46:14;3.65;;;2.30;;
53549;SDS011;67273;52.914;-0.982;2023-06-22T01:48:40;2.45;;;2.20;;
53549;SDS011;67273;52.914;-0.982;2023-06-22T01:51:06;2.78;;;2.25;;
53549;SDS011;67273;52.914;-0.982;2023-06-22T01:53:32;2.47;;;2.08;;
53549;SDS011;67273;52.914;-0.982;2023-06-22T01:55:58;2.58;;;2.20;;
53549;SDS011;67273;52.914;-0.982;2023-06-22T01:58:28;3.00;;;2.10;;
53549;SDS011;67273;52.914;-0.982;2023-06-22T02:00:56;2.13;;;1.90;;
53549;SDS011;67273;52.914;-0.982;2023-06-22T02:06:01;3.10;;;2.45;;
53549;SDS011;67273;52.914;-0.982;2023-06-22T02:08:32;3.13;;;2.30;;
53549;SDS011;67273;52.914;-0.982;2023-06-22T02:11:03;2.67;;;2.38;;
53549;SDS011;67273;52.914;-0.982;2023-06-22T02:13:31;3.45;;;2.08;;
53549;SDS011;67273;52.914;-0.982;2023-06-22T02:15:58;3.22;;;2.40;;
53549;SDS011;67273;52.914;-0.982;2023-06-22T02:18:24;2.88;;;2.20;;
53549;SDS011;67273;52.914;-0.982;2023-06-22T02:20:54;2.63;;;2.00;;
53549;SDS011;67273;52.914;-0.982;2023-06-22T02:23:21;3.20;;;2.30;;
53549;SDS011;67273;52.914;-0.982;2023-06-22T02:25:47;2.53;;;2.15;;
53549;SDS011;67273;52.914;-0.982;2023-06-22T02:28:13;4.40;;;2.30;;
53549;SDS011;67273;52.914;-0.982;2023-06-22T02:30:39;3.72;;;2.33;;
53549;SDS011;67273;52.914;-0.982;2023-06-22T02:33:06;2.67;;;2.40;;
53549;SDS011;67273;52.914;-0.982;2023-06-22T02:35:32;2.50;;;2.15;;
53549;SDS011;67273;52.914;-0.982;2023-06-22T02:38:02;2.55;;;2.22;;
53549;SDS011;67273;52.914;-0.982;2023-06-22T02:40:29;3.30;;;2.33;;
53549;SDS011;67273;52.914;-0.982;2023-06-22T02:42:55;2.85;;;2.22;;
53549;SDS011;67273;52.914;-0.982;2023-06-22T02:45:23;2.97;;;2.53;;
53549;SDS011;67273;52.914;-0.982;2023-06-22T02:47:50;3.03;;;2.40;;
53549;SDS011;67273;52.914;-0.982;2023-06-22T02:50:16;3.53;;;2.20;;
53549;SDS011;67273;52.914;-0.982;2023-06-22T02:52:42;3.67;;;2.20;;
53549;SDS011;67273;52.914;-0.982;2023-06-22T02:55:09;3.38;;;2.40;;
53549;SDS011;67273;52.914;-0.982;2023-06-22T02:57:35;3.35;;;2.30;;
53549;SDS011;67273;52.914;-0.982;2023-06-22T03:00:02;3.33;;;2.20;;
53549;SDS011;67273;52.914;-0.982;2023-06-22T03:02:42;2.42;;;2.22;;
53549;SDS011;67273;52.914;-0.982;2023-06-22T03:05:08;3.60;;;2.08;;
53549;SDS011;67273;52.914;-0.982;2023-06-22T03:07:38;2.83;;;2.08;;
53549;SDS011;67273;52.914;-0.982;2023-06-22T03:10:05;2.92;;;2.45;;
53549;SDS011;67273;52.914;-0.982;2023-06-22T03:12:33;2.88;;;2.33;;
53549;SDS011;67273;52.914;-0.982;2023-06-22T03:14:59;3.33;;;2.17;;
53549;SDS011;67273;52.914;-0.982;2023-06-22T03:17:25;2.50;;;2.20;;
53549;SDS011;67273;52.914;-0.982;2023-06-22T03:19:50;2.83;;;2.00;;
53549;SDS011;67273;52.914;-0.982;2023-06-22T03:22:16;2.42;;;2.20;;
53549;SDS011;67273;52.914;-0.982;2023-06-22T03:24:42;4.15;;;2.40;;
53549;SDS011;67273;52.914;-0.982;2023-06-22T03:27:07;2.45;;;2.00;;
53549;SDS011;67273;52.914;-0.982;2023-06-22T03:29:35;3.25;;;2.13;;
53549;SDS011;67273;52.914;-0.982;2023-06-22T03:32:01;3.45;;;2.35;;
53549;SDS011;67273;52.914;-0.982;2023-06-22T03:34:27;3.17;;;2.40;;
53549;SDS011;67273;52.914;-0.982;2023-06-22T03:36:52;2.97;;;2.22;;
53549;SDS011;67273;52.914;-0.982;2023-06-22T03:39:18;2.88;;;2.10;;
53549;SDS011;67273;52.914;-0.982;2023-06-22T03:41:45;2.72;;;2.22;;
53549;SDS011;67273;52.914;-0.982;2023-06-22T03:44:11;2.47;;;2.10;;
53549;SDS011;67273;52.914;-0.982;2023-06-22T03:46:39;2.30;;;2.10;;
53549;SDS011;67273;52.914;-0.982;2023-06-22T03:49:04;2.92;;;2.20;;
53549;SDS011;67273;52.914;-0.982;2023-06-22T03:51:30;2.80;;;2.30;;
53549;SDS011;67273;52.914;-0.982;2023-06-22T03:53:56;2.83;;;2.00;;
53549;SDS011;67273;52.914;-0.982;2023-06-22T03:56:22;2.63;;;2.10;;
53549;SDS011;67273;52.914;-0.982;2023-06-22T03:58:47;4.72;;;2.40;;
53549;SDS011;67273;52.914;-0.982;2023-06-22T04:01:13;2.97;;;2.28;;
53549;SDS011;67273;52.914;-0.982;2023-06-22T04:03:40;2.95;;;2.65;;
53549;SDS011;67273;52.914;-0.982;2023-06-22T04:06:06;3.13;;;2.30;;
53549;SDS011;67273;52.914;-0.982;2023-06-22T04:08:32;3.10;;;2.15;;
53549;SDS011;67273;52.914;-0.982;2023-06-22T04:10:58;3.47;;;2.10;;
53549;SDS011;67273;52.914;-0.982;2023-06-22T04:13:23;4.45;;;2.30;;
53549;SDS011;67273;52.914;-0.982;2023-06-22T04:15:49;2.97;;;2.17;;
53549;SDS011;67273;52.914;-0.982;2023-06-22T04:18:15;2.65;;;2.30;;
53549;SDS011;67273;52.914;-0.982;2023-06-22T04:20:42;2.50;;;2.30;;
53549;SDS011;67273;52.914;-0.982;2023-06-22T04:23:12;3.55;;;2.30;;
53549;SDS011;67273;52.914;-0.982;2023-06-22T04:25:38;3.80;;;2.50;;
53549;SDS011;67273;52.914;-0.982;2023-06-22T04:28:03;3.70;;;2.50;;
53549;SDS011;67273;52.914;-0.982;2023-06-22T04:30:29;3.25;;;2.40;;
53549;SDS011;67273;52.914;-0.982;2023-06-22T04:32:56;3.15;;;2.33;;
53549;SDS011;67273;52.914;-0.982;2023-06-22T04:35:22;3.42;;;2.45;;
53549;SDS011;67273;52.914;-0.982;2023-06-22T04:37:50;3.42;;;2.60;;
53549;SDS011;67273;52.914;-0.982;2023-06-22T04:40:20;4.50;;;2.72;;
53549;SDS011;67273;52.914;-0.982;2023-06-22T04:42:46;3.50;;;2.40;;
53549;SDS011;67273;52.914;-0.982;2023-06-22T04:45:18;5.95;;;2.90;;
53549;SDS011;67273;52.914;-0.982;2023-06-22T04:47:44;4.00;;;2.60;;
53549;SDS011;67273;52.914;-0.982;2023-06-22T04:50:10;3.60;;;2.40;;
53549;SDS011;67273;52.914;-0.982;2023-06-22T04:52:37;3.00;;;2.50;;
53549;SDS011;67273;52.914;-0.982;2023-06-22T04:55:04;5.10;;;2.22;;
53549;SDS011;67273;52.914;-0.982;2023-06-22T04:57:31;3.22;;;2.47;;
53549;SDS011;67273;52.914;-0.982;2023-06-22T05:00:00;4.60;;;2.80;;
53549;SDS011;67273;52.914;-0.982;2023-06-22T05:02:37;2.75;;;2.40;;
53549;SDS011;67273;52.914;-0.982;2023-06-22T05:05:04;4.13;;;2.60;;
53549;SDS011;67273;52.914;-0.982;2023-06-22T05:07:32;2.83;;;2.33;;
53549;SDS011;67273;52.914;-0.982;2023-06-22T05:09:58;4.75;;;2.70;;
53549;SDS011;67273;52.914;-0.982;2023-06-22T05:12:25;4.75;;;2.72;;
53549;SDS011;67273;52.914;-0.982;2023-06-22T05:14:52;4.10;;;2.67;;
53549;SDS011;67273;52.914;-0.982;2023-06-22T05:17:18;3.67;;;2.45;;
53549;SDS011;67273;52.914;-0.982;2023-06-22T05:19:44;4.45;;;2.70;;
53549;SDS011;67273;52.914;-0.982;2023-06-22T05:22:14;3.08;;;2.70;;
53549;SDS011;67273;52.914;-0.982;2023-06-22T05:24:40;2.58;;;2.30;;
53549;SDS011;67273;52.914;-0.982;2023-06-22T05:27:06;3.28;;;2.60;;
53549;SDS011;67273;52.914;-0.982;2023-06-22T05:29:33;4.45;;;2.72;;
53549;SDS011;67273;52.914;-0.982;2023-06-22T05:31:59;3.63;;;2.63;;
53549;SDS011;67273;52.914;-0.982;2023-06-22T05:34:25;3.15;;;2.53;;
53549;SDS011;67273;52.914;-0.982;2023-06-22T05:36:51;3.78;;;2.80;;
53549;SDS011;67273;52.914;-0.982;2023-06-22T05:39:16;3.05;;;2.58;;
53549;SDS011;67273;52.914;-0.982;2023-06-22T05:41:42;4.05;;;2.80;;
53549;SDS011;67273;52.914;-0.982;2023-06-22T05:44:08;4.18;;;2.80;;
53549;SDS011;67273;52.914;-0.982;2023-06-22T05:46:35;3.28;;;2.90;;
53549;SDS011;67273;52.914;-0.982;2023-06-22T05:49:01;4.38;;;2.85;;
53549;SDS011;67273;52.914;-0.982;2023-06-22T05:51:27;3.80;;;2.65;;
53549;SDS011;67273;52.914;-0.982;2023-06-22T05:53:52;4.60;;;3.00;;
53549;SDS011;67273;52.914;-0.982;2023-06-22T05:56:18;3.97;;;2.80;;
53549;SDS011;67273;52.914;-0.982;2023-06-22T05:58:44;3.72;;;2.90;;
53549;SDS011;67273;52.914;-0.982;2023-06-22T06:01:10;4.20;;;2.45;;
53549;SDS011;67273;52.914;-0.982;2023-06-22T06:03:39;4.38;;;2.80;;
53549;SDS011;67273;52.914;-0.982;2023-06-22T06:06:08;4.35;;;3.20;;
53549;SDS011;67273;52.914;-0.982;2023-06-22T06:08:37;3.75;;;2.90;;
53549;SDS011;67273;52.914;-0.982;2023-06-22T06:11:07;4.43;;;2.97;;
53549;SDS011;67273;52.914;-0.982;2023-06-22T06:13:35;4.15;;;2.92;;
53549;SDS011;67273;52.914;-0.982;2023-06-22T06:16:01;4.97;;;2.97;;
53549;SDS011;67273;52.914;-0.982;2023-06-22T06:18:27;4.18;;;2.78;;
53549;SDS011;67273;52.914;-0.982;2023-06-22T06:20:54;5.07;;;2.90;;
53549;SDS011;67273;52.914;-0.982;2023-06-22T06:23:19;5.13;;;3.20;;
53549;SDS011;67273;52.914;-0.982;2023-06-22T06:25:46;5.63;;;2.83;;
53549;SDS011;67273;52.914;-0.982;2023-06-22T06:28:12;5.75;;;3.08;;
53549;SDS011;67273;52.914;-0.982;2023-06-22T06:30:38;4.93;;;3.17;;
53549;SDS011;67273;52.914;-0.982;2023-06-22T06:33:03;3.78;;;3.00;;
53549;SDS011;67273;52.914;-0.982;2023-06-22T06:35:33;3.92;;;3.08;;
53549;SDS011;67273;52.914;-0.982;2023-06-22T06:38:01;3.85;;;2.88;;
53549;SDS011;67273;52.914;-0.982;2023-06-22T06:40:27;3.50;;;2.50;;
53549;SDS011;67273;52.914;-0.982;2023-06-22T06:42:53;4.93;;;3.28;;
53549;SDS011;67273;52.914;-0.982;2023-06-22T06:45:19;4.35;;;2.90;;
53549;SDS011;67273;52.914;-0.982;2023-06-22T06:47:50;4.15;;;2.85;;
53549;SDS011;67273;52.914;-0.982;2023-06-22T06:50:17;4.28;;;3.15;;
53549;SDS011;67273;52.914;-0.982;2023-06-22T06:52:44;3.97;;;2.88;;
53549;SDS011;67273;52.914;-0.982;2023-06-22T06:55:11;4.60;;;2.92;;
53549;SDS011;67273;52.914;-0.982;2023-06-22T06:57:37;3.60;;;2.85;;
53549;SDS011;67273;52.914;-0.982;2023-06-22T07:00:03;3.65;;;2.65;;
53549;SDS011;67273;52.914;-0.982;2023-06-22T07:02:37;4.35;;;2.78;;
53549;SDS011;67273;52.914;-0.982;2023-06-22T07:05:03;4.28;;;2.95;;
53549;SDS011;67273;52.914;-0.982;2023-06-22T07:07:29;4.18;;;3.28;;
53549;SDS011;67273;52.914;-0.982;2023-06-22T07:09:56;5.03;;;3.10;;
53549;SDS011;67273;52.914;-0.982;2023-06-22T07:12:23;4.15;;;3.30;;
53549;SDS011;67273;52.914;-0.982;2023-06-22T07:14:49;4.97;;;3.30;;
53549;SDS011;67273;52.914;-0.982;2023-06-22T07:17:15;4.18;;;3.03;;
53549;SDS011;67273;52.914;-0.982;2023-06-22T07:19:41;5.03;;;3.53;;
53549;SDS011;67273;52.914;-0.982;2023-06-22T07:22:07;4.85;;;3.10;;
53549;SDS011;67273;52.914;-0.982;2023-06-22T07:24:33;4.47;;;3.03;;
53549;SDS011;67273;52.914;-0.982;2023-06-22T07:26:59;5.57;;;3.17;;
53549;SDS011;67273;52.914;-0.982;2023-06-22T07:29:26;6.10;;;2.97;;
53549;SDS011;67273;52.914;-0.982;2023-06-22T07:31:52;5.22;;;3.15;;
53549;SDS011;67273;52.914;-0.982;2023-06-22T07:34:18;5.40;;;3.17;;
53549;SDS011;67273;52.914;-0.982;2023-06-22T07:36:44;5.07;;;2.97;;
53549;SDS011;67273;52.914;-0.982;2023-06-22T07:39:10;4.50;;;3.13;;
53549;SDS011;67273;52.914;-0.982;2023-06-22T07:41:37;4.13;;;2.67;;
53549;SDS011;67273;52.914;-0.982;2023-06-22T07:44:04;3.70;;;2.80;;
53549;SDS011;67273;52.914;-0.982;2023-06-22T07:46:33;3.25;;;2.80;;
53549;SDS011;67273;52.914;-0.982;2023-06-22T07:48:59;4.80;;;2.88;;
53549;SDS011;67273;52.914;-0.982;2023-06-22T07:51:26;4.18;;;3.00;;
53549;SDS011;67273;52.914;-0.982;2023-06-22T07:53:52;5.20;;;2.97;;
53549;SDS011;67273;52.914;-0.982;2023-06-22T07:56:18;3.72;;;2.80;;
53549;SDS011;67273;52.914;-0.982;2023-06-22T07:58:46;5.55;;;2.80;;
53549;SDS011;67273;52.914;-0.982;2023-06-22T08:01:13;3.22;;;2.60;;
53549;SDS011;67273;52.914;-0.982;2023-06-22T08:03:40;4.20;;;3.10;;
53549;SDS011;67273;52.914;-0.982;2023-06-22T08:06:06;3.97;;;2.90;;
53549;SDS011;67273;52.914;-0.982;2023-06-22T08:08:34;3.70;;;2.90;;
53549;SDS011;67273;52.914;-0.982;2023-06-22T08:11:00;4.15;;;2.80;;
53549;SDS011;67273;52.914;-0.982;2023-06-22T08:13:26;5.43;;;3.05;;
53549;SDS011;67273;52.914;-0.982;2023-06-22T08:15:51;4.90;;;2.97;;
53549;SDS011;67273;52.914;-0.982;2023-06-22T08:18:17;2.97;;;2.50;;
53549;SDS011;67273;52.914;-0.982;2023-06-22T08:20:44;3.55;;;3.00;;
53549;SDS011;67273;52.914;-0.982;2023-06-22T08:23:10;3.53;;;3.00;;
53549;SDS011;67273;52.914;-0.982;2023-06-22T08:25:36;4.45;;;2.85;;
53549;SDS011;67273;52.914;-0.982;2023-06-22T08:28:01;4.63;;;2.92;;
53549;SDS011;67273;52.914;-0.982;2023-06-22T08:30:29;4.15;;;2.80;;
53549;SDS011;67273;52.914;-0.982;2023-06-22T08:32:54;3.78;;;2.78;;
53549;SDS011;67273;52.914;-0.982;2023-06-22T08:35:21;3.80;;;3.22;;
53549;SDS011;67273;52.914;-0.982;2023-06-22T08:37:48;4.18;;;3.00;;
53549;SDS011;67273;52.914;-0.982;2023-06-22T08:40:19;4.57;;;3.08;;
53549;SDS011;67273;52.914;-0.982;2023-06-22T08:42:45;5.00;;;3.28;;
53549;SDS011;67273;52.914;-0.982;2023-06-22T08:45:12;3.63;;;2.90;;
53549;SDS011;67273;52.914;-0.982;2023-06-22T08:47:38;3.80;;;2.80;;
53549;SDS011;67273;52.914;-0.982;2023-06-22T08:50:04;4.20;;;2.85;;
53549;SDS011;67273;52.914;-0.982;2023-06-22T08:52:32;5.30;;;2.70;;
53549;SDS011;67273;52.914;-0.982;2023-06-22T08:54:59;4.00;;;3.00;;
53549;SDS011;67273;52.914;-0.982;2023-06-22T08:57:26;4.82;;;3.00;;
53549;SDS011;67273;52.914;-0.982;2023-06-22T08:59:51;5.32;;;2.78;;
53549;SDS011;67273;52.914;-0.982;2023-06-22T09:02:18;4.93;;;3.10;;
53549;SDS011;67273;52.914;-0.982;2023-06-22T09:04:45;4.75;;;3.10;;
53549;SDS011;67273;52.914;-0.982;2023-06-22T09:07:11;4.00;;;2.83;;
53549;SDS011;67273;52.914;-0.982;2023-06-22T09:09:37;4.22;;;2.75;;
53549;SDS011;67273;52.914;-0.982;2023-06-22T09:12:04;4.90;;;2.97;;
53549;SDS011;67273;52.914;-0.982;2023-06-22T09:14:31;4.00;;;2.90;;
53549;SDS011;67273;52.914;-0.982;2023-06-22T09:16:57;5.70;;;3.13;;
53549;SDS011;67273;52.914;-0.982;2023-06-22T09:19:22;3.78;;;2.80;;
53549;SDS011;67273;52.914;-0.982;2023-06-22T09:21:48;7.15;;;3.30;;
53549;SDS011;67273;52.914;-0.982;2023-06-22T09:24:14;4.35;;;2.92;;
53549;SDS011;67273;52.914;-0.982;2023-06-22T09:26:40;5.15;;;3.08;;
53549;SDS011;67273;52.914;-0.982;2023-06-22T09:29:07;3.80;;;2.85;;
53549;SDS011;67273;52.914;-0.982;2023-06-22T09:31:33;4.22;;;2.72;;
53549;SDS011;67273;52.914;-0.982;2023-06-22T09:33:58;5.95;;;3.00;;
53549;SDS011;67273;52.914;-0.982;2023-06-22T09:36:24;3.67;;;2.85;;
53549;SDS011;67273;52.914;-0.982;2023-06-22T09:38:50;4.82;;;2.83;;
53549;SDS011;67273;52.914;-0.982;2023-06-22T09:41:23;4.88;;;2.90;;
53549;SDS011;67273;52.914;-0.982;2023-06-22T09:43:49;4.38;;;2.97;;
53549;SDS011;67273;52.914;-0.982;2023-06-22T09:46:17;4.65;;;2.90;;
53549;SDS011;67273;52.914;-0.982;2023-06-22T09:48:43;5.10;;;2.80;;
53549;SDS011;67273;52.914;-0.982;2023-06-22T09:51:09;3.88;;;2.60;;
53549;SDS011;67273;52.914;-0.982;2023-06-22T09:53:35;4.20;;;2.95;;
53549;SDS011;67273;52.914;-0.982;2023-06-22T09:56:01;3.65;;;2.80;;
53549;SDS011;67273;52.914;-0.982;2023-06-22T09:58:27;3.65;;;2.70;;
53549;SDS011;67273;52.914;-0.982;2023-06-22T10:00:53;4.13;;;2.78;;
53549;SDS011;67273;52.914;-0.982;2023-06-22T10:03:20;5.97;;;3.25;;
53549;SDS011;67273;52.914;-0.982;2023-06-22T10:05:46;4.88;;;2.92;;
53549;SDS011;67273;52.914;-0.982;2023-06-22T10:08:12;5.28;;;2.95;;
53549;SDS011;67273;52.914;-0.982;2023-06-22T10:10:38;4.30;;;2.85;;
53549;SDS011;67273;52.914;-0.982;2023-06-22T10:13:07;4.40;;;2.60;;
53549;SDS011;67273;52.914;-0.982;2023-06-22T10:15:36;4.23;;;3.07;;
53549;SDS011;67273;52.914;-0.982;2023-06-22T10:18:03;4.60;;;2.90;;
53549;SDS011;67273;52.914;-0.982;2023-06-22T10:20:30;4.05;;;2.90;;
53549;SDS011;67273;52.914;-0.982;2023-06-22T10:22:56;4.72;;;2.78;;
53549;SDS011;67273;52.914;-0.982;2023-06-22T10:25:21;3.03;;;2.70;;
53549;SDS011;67273;52.914;-0.982;2023-06-22T10:27:47;4.10;;;2.85;;
53549;SDS011;67273;52.914;-0.982;2023-06-22T10:30:13;4.53;;;2.92;;
53549;SDS011;67273;52.914;-0.982;2023-06-22T10:32:39;5.70;;;3.00;;
53549;SDS011;67273;52.914;-0.982;2023-06-22T10:35:06;4.38;;;2.63;;
53549;SDS011;67273;52.914;-0.982;2023-06-22T10:37:33;5.50;;;2.70;;
53549;SDS011;67273;52.914;-0.982;2023-06-22T10:39:59;3.30;;;2.72;;
53549;SDS011;67273;52.914;-0.982;2023-06-22T10:42:25;4.45;;;2.88;;
53549;SDS011;67273;52.914;-0.982;2023-06-22T10:44:50;4.45;;;2.92;;
53549;SDS011;67273;52.914;-0.982;2023-06-22T10:47:16;3.35;;;2.90;;
53549;SDS011;67273;52.914;-0.982;2023-06-22T10:49:42;3.47;;;2.72;;
53549;SDS011;67273;52.914;-0.982;2023-06-22T10:52:08;3.13;;;2.40;;
53549;SDS011;67273;52.914;-0.982;2023-06-22T10:54:36;4.35;;;3.03;;
53549;SDS011;67273;52.914;-0.982;2023-06-22T10:57:03;4.00;;;2.88;;
53549;SDS011;67273;52.914;-0.982;2023-06-22T10:59:29;3.83;;;2.75;;
53549;SDS011;67273;52.914;-0.982;2023-06-22T11:01:54;3.40;;;2.85;;
53549;SDS011;67273;52.914;-0.982;2023-06-22T11:04:20;3.58;;;2.65;;
53549;SDS011;67273;52.914;-0.982;2023-06-22T11:06:47;4.20;;;2.92;;
53549;SDS011;67273;52.914;-0.982;2023-06-22T11:09:13;4.18;;;3.13;;
53549;SDS011;67273;52.914;-0.982;2023-06-22T11:11:45;4.47;;;2.55;;
53549;SDS011;67273;52.914;-0.982;2023-06-22T11:14:11;3.83;;;2.78;;
53549;SDS011;67273;52.914;-0.982;2023-06-22T11:16:37;3.42;;;2.78;;
53549;SDS011;67273;52.914;-0.982;2023-06-22T11:19:04;3.13;;;2.35;;
53549;SDS011;67273;52.914;-0.982;2023-06-22T11:21:30;3.42;;;2.60;;
53549;SDS011;67273;52.914;-0.982;2023-06-22T11:23:56;4.97;;;2.58;;
53549;SDS011;67273;52.914;-0.982;2023-06-22T11:26:22;3.47;;;2.72;;
53549;SDS011;67273;52.914;-0.982;2023-06-22T11:28:49;3.70;;;2.67;;
53549;SDS011;67273;52.914;-0.982;2023-06-22T11:31:15;4.60;;;2.90;;
53549;SDS011;67273;52.914;-0.982;2023-06-22T11:33:41;4.97;;;2.92;;
53549;SDS011;67273;52.914;-0.982;2023-06-22T11:36:06;3.15;;;2.63;;
53549;SDS011;67273;52.914;-0.982;2023-06-22T11:38:32;3.88;;;2.70;;
53549;SDS011;67273;52.914;-0.982;2023-06-22T11:40:59;5.25;;;3.00;;
53549;SDS011;67273;52.914;-0.982;2023-06-22T11:43:25;4.70;;;2.58;;
53549;SDS011;67273;52.914;-0.982;2023-06-22T11:45:52;4.07;;;2.70;;
53549;SDS011;67273;52.914;-0.982;2023-06-22T11:48:18;3.90;;;2.80;;
53549;SDS011;67273;52.914;-0.982;2023-06-22T11:50:43;4.32;;;3.17;;
53549;SDS011;67273;52.914;-0.982;2023-06-22T11:53:09;5.00;;;2.83;;
53549;SDS011;67273;52.914;-0.982;2023-06-22T11:55:35;3.80;;;2.75;;
53549;SDS011;67273;52.914;-0.982;2023-06-22T11:58:00;3.65;;;2.50;;
53549;SDS011;67273;52.914;-0.982;2023-06-22T12:00:28;4.03;;;2.53;;
53549;SDS011;67273;52.914;-0.982;2023-06-22T12:02:56;3.50;;;2.60;;
53549;SDS011;67273;52.914;-0.982;2023-06-22T12:05:22;3.53;;;2.70;;
53549;SDS011;67273;52.914;-0.982;2023-06-22T12:07:48;4.03;;;2.60;;
53549;SDS011;67273;52.914;-0.982;2023-06-22T12:10:13;3.05;;;2.67;;
53549;SDS011;67273;52.914;-0.982;2023-06-22T12:12:39;3.70;;;2.67;;
53549;SDS011;67273;52.914;-0.982;2023-06-22T12:15:05;3.75;;;2.67;;
53549;SDS011;67273;52.914;-0.982;2023-06-22T12:17:33;3.05;;;2.40;;
53549;SDS011;67273;52.914;-0.982;2023-06-22T12:20:00;3.78;;;2.88;;
53549;SDS011;67273;52.914;-0.982;2023-06-22T12:22:27;3.75;;;2.55;;
53549;SDS011;67273;52.914;-0.982;2023-06-22T12:24:53;3.65;;;2.40;;
53549;SDS011;67273;52.914;-0.982;2023-06-22T12:27:18;3.58;;;2.28;;
53549;SDS011;67273;52.914;-0.982;2023-06-22T12:29:45;2.80;;;2.50;;
53549;SDS011;67273;52.914;-0.982;2023-06-22T12:32:10;4.43;;;2.80;;
53549;SDS011;67273;52.914;-0.982;2023-06-22T12:34:38;4.03;;;2.80;;
53549;SDS011;67273;52.914;-0.982;2023-06-22T12:37:05;4.20;;;2.65;;
53549;SDS011;67273;52.914;-0.982;2023-06-22T12:39:31;3.25;;;2.70;;
53549;SDS011;67273;52.914;-0.982;2023-06-22T12:41:57;3.63;;;2.75;;
53549;SDS011;67273;52.914;-0.982;2023-06-22T12:44:23;2.60;;;2.30;;
53549;SDS011;67273;52.914;-0.982;2023-06-22T12:46:48;3.88;;;2.70;;
53549;SDS011;67273;52.914;-0.982;2023-06-22T12:49:15;2.40;;;2.20;;
53549;SDS011;67273;52.914;-0.982;2023-06-22T12:51:41;2.92;;;2.55;;
53549;SDS011;67273;52.914;-0.982;2023-06-22T12:54:09;3.05;;;2.53;;
53549;SDS011;67273;52.914;-0.982;2023-06-22T12:56:36;3.10;;;2.45;;
53549;SDS011;67273;52.914;-0.982;2023-06-22T12:59:02;3.15;;;2.30;;
53549;SDS011;67273;52.914;-0.982;2023-06-22T13:01:29;2.47;;;2.15;;
53549;SDS011;67273;52.914;-0.982;2023-06-22T13:03:57;3.05;;;2.50;;
53549;SDS011;67273;52.914;-0.982;2023-06-22T13:06:24;3.40;;;2.55;;
53549;SDS011;67273;52.914;-0.982;2023-06-22T13:08:50;2.80;;;2.47;;
53549;SDS011;67273;52.914;-0.982;2023-06-22T13:11:17;2.78;;;2.40;;
53549;SDS011;67273;52.914;-0.982;2023-06-22T13:13:43;2.55;;;2.15;;
53549;SDS011;67273;52.914;-0.982;2023-06-22T13:16:10;3.60;;;2.35;;
53549;SDS011;67273;52.914;-0.982;2023-06-22T13:18:35;2.78;;;2.30;;
53549;SDS011;67273;52.914;-0.982;2023-06-22T13:21:01;2.83;;;2.40;;
53549;SDS011;67273;52.914;-0.982;2023-06-22T13:23:27;2.45;;;2.17;;
53549;SDS011;67273;52.914;-0.982;2023-06-22T13:25:52;3.35;;;2.30;;
53549;SDS011;67273;52.914;-0.982;2023-06-22T13:28:20;2.88;;;2.55;;
53549;SDS011;67273;52.914;-0.982;2023-06-22T13:30:46;2.40;;;2.20;;
53549;SDS011;67273;52.914;-0.982;2023-06-22T13:33:12;2.78;;;2.40;;
53549;SDS011;67273;52.914;-0.982;2023-06-22T13:35:39;3.00;;;2.47;;
53549;SDS011;67273;52.914;-0.982;2023-06-22T13:38:07;2.83;;;2.30;;
53549;SDS011;67273;52.914;-0.982;2023-06-22T13:40:34;2.63;;;2.10;;
53549;SDS011;67273;52.914;-0.982;2023-06-22T13:42:59;2.55;;;2.35;;
53549;SDS011;67273;52.914;-0.982;2023-06-22T13:45:27;2.95;;;2.47;;
53549;SDS011;67273;52.914;-0.982;2023-06-22T13:47:53;2.45;;;2.20;;
53549;SDS011;67273;52.914;-0.982;2023-06-22T13:50:18;2.47;;;2.28;;
53549;SDS011;67273;52.914;-0.982;2023-06-22T13:52:44;3.05;;;2.50;;
53549;SDS011;67273;52.914;-0.982;2023-06-22T13:55:10;4.43;;;2.67;;
53549;SDS011;67273;52.914;-0.982;2023-06-22T13:57:36;2.72;;;2.38;;
53549;SDS011;67273;52.914;-0.982;2023-06-22T14:00:03;2.53;;;2.05;;
53549;SDS011;67273;52.914;-0.982;2023-06-22T14:02:38;2.83;;;2.22;;
53549;SDS011;67273;52.914;-0.982;2023-06-22T14:05:08;2.95;;;2.50;;
53549;SDS011;67273;52.914;-0.982;2023-06-22T14:07:34;3.88;;;2.47;;
53549;SDS011;67273;52.914;-0.982;2023-06-22T14:10:00;3.33;;;2.50;;
53549;SDS011;67273;52.914;-0.982;2023-06-22T14:12:26;3.92;;;2.60;;
53549;SDS011;67273;52.914;-0.982;2023-06-22T14:14:52;2.95;;;2.60;;
53549;SDS011;67273;52.914;-0.982;2023-06-22T14:17:17;3.25;;;2.30;;
53549;SDS011;67273;52.914;-0.982;2023-06-22T14:19:50;2.83;;;2.45;;
53549;SDS011;67273;52.914;-0.982;2023-06-22T14:22:17;3.05;;;2.42;;
53549;SDS011;67273;52.914;-0.982;2023-06-22T14:24:43;2.90;;;2.20;;
53549;SDS011;67273;52.914;-0.982;2023-06-22T14:27:09;2.38;;;2.17;;
53549;SDS011;67273;52.914;-0.982;2023-06-22T14:29:34;3.47;;;2.45;;
53549;SDS011;67273;52.914;-0.982;2023-06-22T14:32:00;2.67;;;2.20;;
53549;SDS011;67273;52.914;-0.982;2023-06-22T14:34:26;2.58;;;2.20;;